createdAt,value
2018-12-29T00:03:40.067Z,19.93
2018-12-29T00:08:44.540Z,20.90
2018-12-29T00:13:55.928Z,19.47
2018-12-29T00:19:00.179Z,20.63
2018-12-29T00:24:07.141Z,20.33
2018-12-29T00:29:11.487Z,21.30
2018-12-29T00:34:16.185Z,20.50
2018-12-29T00:39:20.510Z,19.50
2018-12-29T00:44:24.755Z,18.40
2018-12-29T00:49:48.159Z,19.27
2018-12-29T00:54:52.405Z,17.43
2018-12-29T00:59:56.784Z,19.07
2018-12-29T01:05:01.383Z,18.33
2018-12-29T01:15:30.349Z,18.30
2018-12-29T01:20:53.672Z,17.83
2018-12-29T01:25:57.923Z,19.83
2018-12-29T01:31:21.230Z,17.67
2018-12-29T01:36:25.833Z,19.03
2018-12-29T01:41:49.163Z,20.47
2018-12-29T01:46:53.575Z,17.93
2018-12-29T01:52:16.910Z,17.73
2018-12-29T01:57:40.222Z,18.03
2018-12-29T02:03:03.579Z,16.50
2018-12-29T02:08:26.919Z,18.47
2018-12-29T02:13:43.819Z,18.23
2018-12-29T02:18:48.292Z,18.20
2018-12-29T02:24:11.699Z,17.83
2018-12-29T02:29:16.024Z,18.00
2018-12-29T02:34:20.300Z,18.10
2018-12-29T02:39:24.938Z,18.83
2018-12-29T02:44:48.530Z,16.53
2018-12-29T02:49:53.938Z,18.00
2018-12-29T02:55:17.557Z,18.30
2018-12-29T03:00:40.990Z,17.13
2018-12-29T03:05:45.221Z,17.30
2018-12-29T03:11:09.274Z,17.93
2018-12-29T03:16:27.988Z,20.13
2018-12-29T03:21:32.226Z,17.93
2018-12-29T03:26:36.732Z,18.50
2018-12-29T03:31:41.077Z,17.20
2018-12-29T03:36:45.346Z,17.60
2018-12-29T03:41:49.779Z,15.67
2018-12-29T03:46:54.403Z,17.67
2018-12-29T03:51:58.922Z,17.00
2018-12-29T03:57:03.183Z,15.57
2018-12-29T04:02:07.440Z,15.47
2018-12-29T04:07:30.757Z,16.17
2018-12-29T04:12:37.551Z,15.97
2018-12-29T04:17:42.114Z,17.83
2018-12-29T04:22:46.376Z,16.50
2018-12-29T04:27:50.652Z,18.47
2018-12-29T04:32:54.909Z,17.70
2018-12-29T04:37:59.153Z,17.53
2018-12-29T04:43:03.561Z,16.67
2018-12-29T04:48:07.822Z,17.77
2018-12-29T04:53:12.101Z,16.20
2018-12-29T04:58:16.810Z,17.03
2018-12-29T05:03:21.063Z,17.40
2018-12-29T05:08:25.576Z,18.27
2018-12-29T05:13:29.834Z,17.83
2018-12-29T05:18:34.311Z,18.73
2018-12-29T05:23:38.551Z,18.40
2018-12-29T05:28:42.796Z,16.63
2018-12-29T05:34:06.116Z,17.80
2018-12-29T05:39:10.739Z,18.13
2018-12-29T05:44:15.258Z,16.53
2018-12-29T05:49:19.739Z,16.27
2018-12-29T05:54:24.070Z,16.87
2018-12-29T05:59:28.794Z,17.50
2018-12-29T06:04:33.291Z,17.50
2018-12-29T06:09:37.913Z,16.70
2018-12-29T06:15:01.363Z,16.03
2018-12-29T06:20:05.879Z,17.10
2018-12-29T06:25:10.319Z,16.43
2018-12-29T06:30:14.570Z,16.37
2018-12-29T06:35:38.167Z,16.67
2018-12-29T06:40:42.489Z,17.30
2018-12-29T06:45:46.866Z,17.80
2018-12-29T06:50:51.100Z,16.53
2018-12-29T06:56:14.498Z,16.43
2018-12-29T07:01:18.898Z,16.90
2018-12-29T07:06:23.235Z,16.63
2018-12-29T07:11:27.843Z,17.20
2018-12-29T07:16:32.192Z,16.43
2018-12-29T07:21:36.582Z,16.93
2018-12-29T07:26:40.898Z,23.20
2018-12-29T07:31:45.166Z,19.03
2018-12-29T07:36:49.416Z,18.43
2018-12-29T07:41:53.680Z,19.13
2018-12-29T07:46:58.024Z,18.57
2018-12-29T07:52:02.276Z,17.67
2018-12-29T07:57:06.830Z,17.53
2018-12-29T08:02:30.155Z,18.67
2018-12-29T08:07:34.398Z,18.87
2018-12-29T08:12:57.736Z,18.93
2018-12-29T08:18:01.980Z,16.30
2018-12-29T08:33:48.768Z,16.23
2018-12-29T08:38:53.026Z,19.00
2018-12-29T08:44:16.359Z,17.60
2018-12-29T08:49:20.616Z,16.33
2018-12-29T08:54:43.942Z,18.30
2018-12-29T08:59:48.211Z,16.10
2018-12-29T09:04:52.559Z,16.67
2018-12-29T09:09:56.814Z,16.60
2018-12-29T09:15:01.145Z,16.93
2018-12-29T09:20:05.959Z,17.13
2018-12-29T09:25:10.234Z,18.93
2018-12-29T09:30:14.492Z,17.07
2018-12-29T09:35:37.811Z,17.80
2018-12-29T09:40:42.142Z,18.33
2018-12-29T09:46:05.484Z,18.90
2018-12-29T09:51:09.824Z,18.07
2018-12-29T09:56:14.251Z,18.83
2018-12-29T10:01:18.506Z,18.53
2018-12-29T10:06:22.761Z,19.70
2018-12-29T10:11:27.165Z,19.30
2018-12-29T10:16:50.475Z,19.63
2018-12-29T10:21:54.918Z,17.73
2018-12-29T10:26:59.214Z,19.40
2018-12-29T10:32:03.473Z,16.17
2018-12-29T10:37:26.787Z,15.67
2018-12-29T10:42:31.129Z,14.13
2018-12-29T10:47:35.441Z,14.90
2018-12-29T10:52:39.874Z,14.70
2018-12-29T10:57:44.297Z,13.53
2018-12-29T11:02:48.567Z,13.73
2018-12-29T11:07:52.945Z,13.23
2018-12-29T11:12:57.267Z,14.53
2018-12-29T11:18:01.730Z,14.27
2018-12-29T11:23:06.063Z,14.90
2018-12-29T11:28:10.431Z,14.33
2018-12-29T11:33:15.123Z,13.40
2018-12-29T11:38:19.373Z,13.97
2018-12-29T11:43:24.046Z,15.57
2018-12-29T11:48:28.426Z,12.63
2018-12-29T11:53:32.680Z,13.30
2018-12-29T11:58:56.005Z,13.27
2018-12-29T12:04:00.667Z,11.97
2018-12-29T12:09:25.405Z,12.27
2018-12-29T12:14:29.658Z,12.77
2018-12-29T12:19:34.003Z,13.27
2018-12-29T12:24:38.366Z,12.57
2018-12-29T12:29:42.859Z,13.50
2018-12-29T12:34:47.294Z,13.13
2018-12-29T12:39:51.782Z,13.87
2018-12-29T12:44:56.382Z,12.10
2018-12-29T12:50:00.878Z,13.70
2018-12-29T12:55:06.094Z,13.13
2018-12-29T13:00:29.418Z,13.73
2018-12-29T13:05:54.761Z,14.77
2018-12-29T13:10:59.121Z,14.93
2018-12-29T13:16:22.499Z,12.93
2018-12-29T13:21:45.936Z,13.87
2018-12-29T13:27:09.272Z,12.90
2018-12-29T13:32:26.551Z,14.07
2018-12-29T13:37:31.083Z,14.63
2018-12-29T13:42:54.728Z,13.47
2018-12-29T13:47:59.436Z,13.33
2018-12-29T13:53:03.710Z,13.57
2018-12-29T13:58:08.118Z,13.33
2018-12-29T14:03:31.941Z,12.43
2018-12-29T14:08:55.384Z,10.97
2018-12-29T14:14:18.720Z,13.07
2018-12-29T14:19:22.974Z,12.80
2018-12-29T14:24:27.222Z,11.60
2018-12-29T14:29:33.274Z,12.80
2018-12-29T14:34:50.414Z,11.10
2018-12-29T14:39:54.867Z,11.33
2018-12-29T14:45:00.184Z,12.00
2018-12-29T14:50:05.040Z,16.93
2018-12-29T14:55:28.454Z,14.93
2018-12-29T15:00:32.874Z,12.73
2018-12-29T15:05:38.912Z,12.17
2018-12-29T15:10:43.246Z,12.00
2018-12-29T15:15:48.024Z,14.67
2018-12-29T15:21:13.073Z,13.97
2018-12-29T15:26:17.707Z,13.77
2018-12-29T15:31:22.278Z,12.67
2018-12-29T15:36:26.725Z,12.07
2018-12-29T15:41:31.301Z,12.83
2018-12-29T15:46:37.295Z,14.60
2018-12-29T15:51:42.012Z,14.30
2018-12-29T15:57:05.396Z,12.57
2018-12-29T16:02:09.668Z,13.07
2018-12-29T16:07:14.102Z,15.47
2018-12-29T16:12:18.888Z,14.27
2018-12-29T16:17:23.301Z,12.97
2018-12-29T16:22:28.359Z,12.70
2018-12-29T16:27:32.899Z,15.47
2018-12-29T16:32:37.516Z,13.60
2018-12-29T16:37:41.960Z,15.17
2018-12-29T16:43:05.415Z,15.47
2018-12-29T16:48:09.851Z,13.20
2018-12-29T16:53:14.602Z,14.37
2018-12-29T16:58:18.993Z,13.57
2018-12-29T17:03:42.647Z,15.23
2018-12-29T17:08:46.912Z,13.43
2018-12-29T17:13:51.143Z,13.67
2018-12-29T17:19:15.057Z,14.67
2018-12-29T17:24:39.603Z,15.73
2018-12-29T17:29:45.825Z,13.83
2018-12-29T17:34:50.657Z,11.47
2018-12-29T17:39:55.188Z,13.63
2018-12-29T17:44:59.995Z,13.17
2018-12-29T17:50:23.703Z,10.80
2018-12-29T17:55:47.265Z,11.50
2018-12-29T18:01:10.666Z,10.93
2018-12-29T18:06:14.992Z,14.07
2018-12-29T18:11:38.413Z,10.07
2018-12-29T18:16:42.784Z,9.63
2018-12-29T18:21:48.778Z,10.10
2018-12-29T18:26:53.269Z,9.40
2018-12-29T18:32:16.592Z,9.20
2018-12-29T18:37:39.916Z,7.90
2018-12-29T18:42:44.398Z,8.00
2018-12-29T18:47:48.631Z,8.87
2018-12-29T18:53:12.220Z,6.63
2018-12-29T18:58:16.663Z,7.77
2018-12-29T19:03:39.986Z,8.80
2018-12-29T19:09:04.234Z,8.70
2018-12-29T19:14:09.051Z,8.00
2018-12-29T19:19:13.285Z,8.33
2018-12-29T19:24:17.840Z,9.77
2018-12-29T19:29:22.116Z,9.33
2018-12-29T19:34:26.679Z,10.40
2018-12-29T19:39:31.270Z,10.80
2018-12-29T19:44:35.855Z,11.10
2018-12-29T19:49:40.332Z,9.27
2018-12-29T19:54:44.677Z,8.73
2018-12-29T20:00:09.522Z,8.20
2018-12-29T20:05:14.032Z,7.90
2018-12-29T20:10:37.395Z,8.57
2018-12-29T20:15:43.354Z,7.60
2018-12-29T20:20:47.772Z,7.37
2018-12-29T20:25:52.522Z,7.10
2018-12-29T20:30:57.091Z,7.50
2018-12-29T20:36:01.806Z,7.90
2018-12-29T20:41:06.133Z,8.27
2018-12-29T20:46:12.220Z,7.90
2018-12-29T20:51:16.544Z,7.37
2018-12-29T20:56:39.856Z,7.77
2018-12-29T21:02:04.004Z,6.97
2018-12-29T21:07:08.255Z,8.90
2018-12-29T21:12:12.614Z,7.57
2018-12-29T21:17:17.059Z,8.63
2018-12-29T21:22:21.933Z,8.93
2018-12-29T21:27:26.455Z,8.10
2018-12-29T21:32:30.786Z,10.33
2018-12-29T21:37:35.216Z,9.90
2018-12-29T21:42:39.629Z,10.13
2018-12-29T21:47:44.037Z,10.10
2018-12-29T21:52:48.277Z,10.70
2018-12-29T21:57:52.961Z,12.07
2018-12-29T22:02:57.498Z,12.00
2018-12-29T22:08:21.368Z,12.70
2018-12-29T22:13:25.827Z,11.37
2018-12-29T22:18:30.711Z,11.23
2018-12-29T22:23:34.992Z,11.33
2018-12-29T22:28:39.479Z,12.13
2018-12-29T22:34:02.898Z,12.40
2018-12-29T22:39:07.982Z,11.70
2018-12-29T22:44:12.677Z,12.47
2018-12-29T22:49:36.169Z,9.83
2018-12-29T22:54:40.692Z,10.93
2018-12-29T22:59:45.979Z,11.13
2018-12-29T23:04:50.762Z,10.30
2018-12-29T23:09:56.739Z,9.33
2018-12-29T23:15:01.159Z,9.07
2018-12-29T23:20:05.568Z,8.53
2018-12-29T23:25:11.553Z,7.13
2018-12-29T23:30:16.095Z,5.53
2018-12-29T23:35:20.636Z,6.03
2018-12-29T23:40:25.178Z,7.63
2018-12-29T23:45:29.510Z,7.63
2018-12-29T23:50:33.911Z,7.20
2018-12-29T23:55:38.347Z,7.57
